createdAt,value
2023-09-19T00:00:34.857Z,14.30
2023-09-19T00:03:01.576Z,14.31
2023-09-19T00:05:29.939Z,14.33
2023-09-19T00:08:01.386Z,14.26
2023-09-19T00:10:36.160Z,14.21
2023-09-19T00:13:08.132Z,14.16
2023-09-19T00:15:40.452Z,14.30
2023-09-19T00:18:08.091Z,14.19
2023-09-19T00:20:37.316Z,14.30
2023-09-19T00:23:05.410Z,14.20
2023-09-19T00:25:33.073Z,14.12
2023-09-19T00:28:00.251Z,14.14
2023-09-19T00:30:27.991Z,14.39
2023-09-19T00:32:55.678Z,14.12
2023-09-19T00:35:24.992Z,14.24
2023-09-19T00:37:52.160Z,14.11
2023-09-19T00:40:18.903Z,14.24
2023-09-19T00:42:49.374Z,14.30
2023-09-19T00:45:18.503Z,14.20
2023-09-19T00:47:52.592Z,14.25
2023-09-19T00:50:22.217Z,14.24
2023-09-19T00:52:51.026Z,14.04
2023-09-19T00:55:20.954Z,14.18
2023-09-19T00:57:48.745Z,14.19
2023-09-19T01:00:17.062Z,14.13
2023-09-19T01:02:44.511Z,14.05
2023-09-19T01:05:13.692Z,14.17
2023-09-19T01:07:43.227Z,13.99
2023-09-19T01:10:12.521Z,14.05
2023-09-19T01:13:16.646Z,13.88
2023-09-19T01:15:48.831Z,13.95
2023-09-19T01:18:24.329Z,13.79
2023-09-19T01:21:10.833Z,13.89
2023-09-19T01:23:43.896Z,13.85
2023-09-19T01:26:38.374Z,13.55
2023-09-19T01:29:20.897Z,13.81
2023-09-19T01:31:48.596Z,13.72
2023-09-19T01:34:15.160Z,13.83
2023-09-19T01:36:42.441Z,13.99
2023-09-19T01:39:11.974Z,13.79
2023-09-19T01:42:05.536Z,13.61
2023-09-19T01:44:39.355Z,13.74
2023-09-19T01:47:13.399Z,13.54
2023-09-19T01:50:06.749Z,13.85
2023-09-19T01:52:38.146Z,13.77
2023-09-19T01:55:07.974Z,13.65
2023-09-19T01:57:58.063Z,13.80
2023-09-19T02:00:25.332Z,13.56
2023-09-19T02:02:54.301Z,13.68
2023-09-19T02:05:34.229Z,13.87
2023-09-19T02:08:01.743Z,13.94
2023-09-19T02:10:28.348Z,13.82
2023-09-19T02:12:55.026Z,13.85
2023-09-19T02:15:21.662Z,13.99
2023-09-19T02:17:48.232Z,13.93
2023-09-19T02:20:18.219Z,13.97
2023-09-19T02:22:45.613Z,13.73
2023-09-19T02:25:12.368Z,13.61
2023-09-19T02:27:39.078Z,13.63
2023-09-19T02:30:07.283Z,13.75
2023-09-19T02:32:36.887Z,13.68
2023-09-19T02:35:05.512Z,13.66
2023-09-19T02:37:33.774Z,13.49
2023-09-19T02:40:00.726Z,13.35
2023-09-19T02:42:27.273Z,13.45
2023-09-19T02:44:54.015Z,13.63
2023-09-19T02:47:21.427Z,13.58
2023-09-19T02:49:48.094Z,13.57
2023-09-19T02:52:15.617Z,13.61
2023-09-19T02:54:43.106Z,13.55
2023-09-19T02:57:10.860Z,13.49
2023-09-19T02:59:38.303Z,13.48
2023-09-19T03:02:06.463Z,13.69
2023-09-19T03:04:34.316Z,13.43
2023-09-19T03:07:02.250Z,13.60
2023-09-19T03:09:29.170Z,13.65
2023-09-19T03:11:55.785Z,13.66
2023-09-19T03:14:24.295Z,13.67
2023-09-19T03:16:51.719Z,13.62
2023-09-19T03:19:18.430Z,13.49
2023-09-19T03:21:45.658Z,13.42
2023-09-19T03:24:12.582Z,13.34
2023-09-19T03:26:39.917Z,13.21
2023-09-19T03:29:10.976Z,13.22
2023-09-19T03:31:38.589Z,13.12
2023-09-19T03:34:08.049Z,13.18
2023-09-19T03:36:36.822Z,13.09
2023-09-19T03:39:06.085Z,13.33
2023-09-19T03:41:34.286Z,13.29
2023-09-19T03:44:01.433Z,13.37
2023-09-19T03:46:28.034Z,13.37
2023-09-19T03:48:55.698Z,13.31
2023-09-19T03:51:23.570Z,13.39
2023-09-19T03:53:52.947Z,13.56
2023-09-19T03:56:19.871Z,13.29
2023-09-19T03:58:46.510Z,13.32
2023-09-19T04:01:14.695Z,13.24
2023-09-19T04:03:48.282Z,13.01
2023-09-19T04:06:15.599Z,12.91
2023-09-19T04:08:42.424Z,12.84
2023-09-19T04:11:09.045Z,12.81
2023-09-19T04:13:35.936Z,12.99
2023-09-19T04:16:04.822Z,13.02
2023-09-19T04:18:34.345Z,13.05
2023-09-19T04:21:04.653Z,12.83
2023-09-19T04:23:31.969Z,12.97
2023-09-19T04:25:59.391Z,12.96
2023-09-19T04:28:26.001Z,12.91
2023-09-19T04:30:52.628Z,12.92
2023-09-19T04:33:19.381Z,13.14
2023-09-19T04:35:46.033Z,13.10
2023-09-19T04:38:12.965Z,13.31
2023-09-19T04:40:40.929Z,13.36
2023-09-19T04:43:08.671Z,13.17
2023-09-19T04:45:35.613Z,13.09
2023-09-19T04:48:02.194Z,13.09
2023-09-19T04:50:29.207Z,13.15
2023-09-19T04:52:55.977Z,12.98
2023-09-19T04:55:22.627Z,13.05
2023-09-19T04:57:51.075Z,12.93
2023-09-19T05:00:19.976Z,12.93
2023-09-19T05:02:47.350Z,12.85
2023-09-19T05:05:19.932Z,12.65
2023-09-19T05:07:47.295Z,12.75
2023-09-19T05:10:14.657Z,12.71
2023-09-19T05:12:42.084Z,12.86
2023-09-19T05:15:09.352Z,12.99
2023-09-19T05:17:36.259Z,12.96
2023-09-19T05:20:24.376Z,12.96
2023-09-19T05:22:51.523Z,13.24
2023-09-19T05:25:18.928Z,13.21
2023-09-19T05:27:45.583Z,13.22
2023-09-19T05:30:15.243Z,13.43
2023-09-19T05:32:42.291Z,13.32
2023-09-19T05:35:10.695Z,13.45
2023-09-19T05:37:37.700Z,13.53
2023-09-19T05:40:08.401Z,13.47
2023-09-19T05:42:34.925Z,13.60
2023-09-19T05:45:01.437Z,13.71
2023-09-19T05:47:28.290Z,13.39
2023-09-19T05:49:55.391Z,13.33
2023-09-19T05:52:23.466Z,13.34
2023-09-19T05:54:50.734Z,13.66
2023-09-19T05:57:17.759Z,13.61
2023-09-19T05:59:44.445Z,13.74
2023-09-19T06:02:12.462Z,14.10
2023-09-19T06:04:41.890Z,14.25
2023-09-19T06:07:08.693Z,14.24
2023-09-19T06:09:35.233Z,14.12
2023-09-19T06:12:04.886Z,14.15
2023-09-19T06:14:31.817Z,14.11
2023-09-19T06:16:58.565Z,13.96
2023-09-19T06:19:26.769Z,14.33
2023-09-19T06:21:55.013Z,14.36
2023-09-19T06:24:22.201Z,14.41
2023-09-19T06:26:48.943Z,14.43
2023-09-19T06:29:15.610Z,14.69
2023-09-19T06:31:42.932Z,14.61
2023-09-19T06:34:09.559Z,14.53
2023-09-19T06:36:36.137Z,14.14
2023-09-19T06:39:05.194Z,14.79
2023-09-19T06:41:31.824Z,15.09
2023-09-19T06:44:06.504Z,15.39
2023-09-19T06:46:36.040Z,15.15
2023-09-19T06:49:07.207Z,14.94
2023-09-19T06:51:35.447Z,14.67
2023-09-19T06:54:03.159Z,14.96
2023-09-19T06:56:29.633Z,14.60
2023-09-19T06:58:56.211Z,14.39
2023-09-19T07:01:22.843Z,14.38
2023-09-19T07:03:49.414Z,14.48
2023-09-19T07:06:15.979Z,14.37
2023-09-19T07:08:44.335Z,14.34
2023-09-19T07:11:11.763Z,14.67
2023-09-19T07:13:39.622Z,14.56
2023-09-19T07:16:06.402Z,15.10
2023-09-19T07:18:33.055Z,15.12
2023-09-19T07:21:05.956Z,15.07
2023-09-19T07:23:35.963Z,15.17
2023-09-19T07:26:02.798Z,15.42
2023-09-19T07:28:29.540Z,15.71
2023-09-19T07:30:56.172Z,15.11
2023-09-19T07:33:22.829Z,15.46
2023-09-19T07:35:49.345Z,15.28
2023-09-19T07:38:15.998Z,15.60
2023-09-19T07:40:42.493Z,15.62
2023-09-19T07:43:09.772Z,15.83
2023-09-19T07:45:37.496Z,16.07
2023-09-19T07:48:05.769Z,16.25
2023-09-19T07:50:34.923Z,15.90
2023-09-19T07:53:02.947Z,15.70
2023-09-19T07:55:32.141Z,16.02
2023-09-19T07:57:59.952Z,15.57
2023-09-19T08:00:26.467Z,15.95
2023-09-19T08:02:58.343Z,15.94
2023-09-19T08:05:30.947Z,15.87
2023-09-19T08:07:57.710Z,14.98
2023-09-19T08:10:28.622Z,15.19
2023-09-19T08:12:59.049Z,15.48
2023-09-19T08:15:25.928Z,15.51
2023-09-19T08:17:52.671Z,15.01
2023-09-19T08:20:22.845Z,15.00
2023-09-19T08:22:55.489Z,15.09
2023-09-19T08:25:26.522Z,15.52
2023-09-19T08:27:53.507Z,15.89
2023-09-19T08:30:25.357Z,16.21
2023-09-19T08:32:52.669Z,16.75
2023-09-19T08:35:20.768Z,16.83
2023-09-19T08:37:47.507Z,16.20
2023-09-19T08:40:14.418Z,16.51
2023-09-19T08:42:51.006Z,16.23
2023-09-19T08:45:18.216Z,16.20
2023-09-19T08:47:49.279Z,16.41
2023-09-19T08:50:24.627Z,16.06
2023-09-19T08:52:54.587Z,15.91
2023-09-19T08:55:24.686Z,16.32
2023-09-19T08:57:53.512Z,16.33
2023-09-19T09:00:22.177Z,16.17
2023-09-19T09:02:49.466Z,15.64
2023-09-19T09:05:23.755Z,15.45
2023-09-19T09:07:53.735Z,15.47
2023-09-19T09:10:24.088Z,15.13
2023-09-19T09:12:53.286Z,15.32
2023-09-19T09:15:24.408Z,15.35
2023-09-19T09:17:51.833Z,15.51
2023-09-19T09:20:19.811Z,15.27
2023-09-19T09:22:56.996Z,15.91
2023-09-19T09:25:26.469Z,17.05
2023-09-19T09:28:02.936Z,17.64
2023-09-19T09:30:37.665Z,18.40
2023-09-19T09:33:15.243Z,18.78
2023-09-19T09:35:48.936Z,18.96
2023-09-19T09:38:17.338Z,19.59
2023-09-19T09:40:50.298Z,19.67
2023-09-19T09:43:30.586Z,20.24
2023-09-19T09:46:24.044Z,19.18
2023-09-19T09:49:28.304Z,18.85
2023-09-19T09:52:19.029Z,18.05
2023-09-19T09:55:06.192Z,18.35
2023-09-19T09:57:32.869Z,18.64
2023-09-19T10:00:27.068Z,19.09
2023-09-19T10:02:56.631Z,19.25
2023-09-19T10:05:29.103Z,19.55
2023-09-19T10:08:09.810Z,18.98
2023-09-19T10:10:54.716Z,19.17
2023-09-19T10:13:26.202Z,19.12
2023-09-19T10:15:55.955Z,18.95
2023-09-19T10:18:24.334Z,18.47
2023-09-19T10:20:51.835Z,18.42
2023-09-19T10:23:27.089Z,18.04
2023-09-19T10:25:54.759Z,17.69
2023-09-19T10:28:26.057Z,17.88
2023-09-19T10:30:53.412Z,17.39
2023-09-19T10:33:22.977Z,17.40
2023-09-19T10:35:52.432Z,18.72
2023-09-19T10:38:23.010Z,19.45
2023-09-19T10:40:53.130Z,20.16
2023-09-19T10:43:22.232Z,19.48
2023-09-19T10:45:50.786Z,18.89
2023-09-19T10:48:21.258Z,18.67
2023-09-19T10:50:56.193Z,18.47
2023-09-19T10:53:23.879Z,20.14
2023-09-19T10:55:58.344Z,21.17
2023-09-19T10:58:30.086Z,21.60
2023-09-19T11:01:07.784Z,21.38
2023-09-19T11:03:34.847Z,22.45
2023-09-19T11:06:32.213Z,21.70
2023-09-19T11:09:15.632Z,22.48
2023-09-19T11:11:51.782Z,22.35
2023-09-19T11:14:21.184Z,21.66
2023-09-19T11:17:06.533Z,21.36
2023-09-19T11:20:25.039Z,21.77
2023-09-19T11:22:55.022Z,22.70
2023-09-19T11:25:31.050Z,22.37
2023-09-19T11:28:07.385Z,21.13
2023-09-19T11:30:41.639Z,20.44
2023-09-19T11:33:23.129Z,19.54
2023-09-19T11:36:13.229Z,19.72
2023-09-19T11:38:46.368Z,19.77
2023-09-19T11:41:29.294Z,19.98
2023-09-19T11:44:04.941Z,19.33
2023-09-19T11:46:33.046Z,18.62
2023-09-19T11:49:18.403Z,18.25
2023-09-19T11:51:46.611Z,17.80
2023-09-19T11:54:32.348Z,18.13
2023-09-19T11:57:00.326Z,17.28
2023-09-19T11:59:31.424Z,16.62
2023-09-19T12:01:59.009Z,16.28
2023-09-19T12:04:38.824Z,15.23
2023-09-19T12:07:16.481Z,15.18
2023-09-19T12:09:45.285Z,14.92
2023-09-19T12:12:16.610Z,14.82
2023-09-19T12:14:49.104Z,14.76
2023-09-19T12:17:15.746Z,14.02
2023-09-19T12:19:59.422Z,14.02
2023-09-19T12:22:26.146Z,14.02
2023-09-19T12:24:55.548Z,13.97
2023-09-19T12:27:23.579Z,13.92
2023-09-19T12:29:50.622Z,14.56
2023-09-19T12:32:22.690Z,14.40
2023-09-19T12:34:53.864Z,15.02
2023-09-19T12:37:24.295Z,15.21
2023-09-19T12:39:56.306Z,15.19
2023-09-19T12:42:30.697Z,15.19
2023-09-19T12:44:57.675Z,15.81
2023-09-19T12:47:25.769Z,15.85
2023-09-19T12:50:15.040Z,15.64
2023-09-19T12:52:44.298Z,15.77
2023-09-19T12:55:24.415Z,15.99
2023-09-19T12:58:13.467Z,15.96
2023-09-19T13:00:42.421Z,15.94
2023-09-19T13:03:26.396Z,16.04
2023-09-19T13:06:01.701Z,16.30
2023-09-19T13:08:39.458Z,16.48
2023-09-19T13:11:16.678Z,16.61
2023-09-19T13:13:47.562Z,16.94
2023-09-19T13:16:20.700Z,16.95
2023-09-19T13:18:54.961Z,17.30
2023-09-19T13:21:26.092Z,19.50
2023-09-19T13:23:53.927Z,20.56
2023-09-19T13:26:20.978Z,21.15
2023-09-19T13:28:50.449Z,21.45
2023-09-19T13:31:17.673Z,21.10
2023-09-19T13:33:49.039Z,20.96
2023-09-19T13:36:15.827Z,21.37
2023-09-19T13:38:48.259Z,21.35
2023-09-19T13:41:15.072Z,21.97
2023-09-19T13:43:41.741Z,22.23
2023-09-19T13:46:08.770Z,23.51
2023-09-19T13:48:36.450Z,23.59
2023-09-19T13:51:04.617Z,23.98
2023-09-19T13:53:31.487Z,24.28
2023-09-19T13:55:58.284Z,24.95
2023-09-19T13:58:25.227Z,25.17
2023-09-19T14:00:52.081Z,25.44
2023-09-19T14:03:18.717Z,24.76
2023-09-19T14:05:45.376Z,24.60
2023-09-19T14:08:14.011Z,25.93
2023-09-19T14:10:40.820Z,25.98
2023-09-19T14:13:07.361Z,24.78
2023-09-19T14:15:35.923Z,24.08
2023-09-19T14:18:02.552Z,24.12
2023-09-19T14:20:29.384Z,24.37
2023-09-19T14:22:56.120Z,23.52
2023-09-19T14:25:24.422Z,24.17
2023-09-19T14:27:51.452Z,24.57
2023-09-19T14:30:17.986Z,24.07
2023-09-19T14:32:44.564Z,23.47
2023-09-19T14:35:12.019Z,23.16
2023-09-19T14:37:40.937Z,22.41
2023-09-19T14:40:09.930Z,23.94
2023-09-19T14:42:39.323Z,22.64
2023-09-19T14:45:06.916Z,23.58
2023-09-19T14:47:35.029Z,22.88
2023-09-19T14:50:08.186Z,23.37
2023-09-19T14:52:35.213Z,23.15
2023-09-19T14:55:02.883Z,24.07
2023-09-19T14:57:30.464Z,23.44
2023-09-19T14:59:57.177Z,23.13
2023-09-19T15:02:23.727Z,23.42
2023-09-19T15:04:52.118Z,24.02
2023-09-19T15:07:18.831Z,24.29
2023-09-19T15:09:46.509Z,24.30
2023-09-19T15:12:15.365Z,24.20
2023-09-19T15:14:45.036Z,23.49
2023-09-19T15:17:11.677Z,23.75
2023-09-19T15:19:38.703Z,23.30
2023-09-19T15:22:07.137Z,23.11
2023-09-19T15:24:33.687Z,23.86
2023-09-19T15:27:00.206Z,23.48
2023-09-19T15:29:26.987Z,22.18
2023-09-19T15:31:58.351Z,22.31
2023-09-19T15:34:25.186Z,22.40
2023-09-19T15:36:52.589Z,21.96
2023-09-19T15:39:19.651Z,22.19
2023-09-19T15:41:48.463Z,22.27
2023-09-19T15:44:17.205Z,21.92
2023-09-19T15:46:44.901Z,21.97
2023-09-19T15:49:11.819Z,20.84
2023-09-19T15:51:38.734Z,20.98
2023-09-19T15:54:11.921Z,20.50
2023-09-19T15:56:38.705Z,19.67
2023-09-19T15:59:05.626Z,19.87
2023-09-19T16:01:32.184Z,19.73
2023-09-19T16:03:59.142Z,19.62
2023-09-19T16:06:29.688Z,19.38
2023-09-19T16:09:00.309Z,19.38
2023-09-19T16:11:28.386Z,19.48
2023-09-19T16:13:55.600Z,18.79
2023-09-19T16:16:27.661Z,19.14
2023-09-19T16:18:59.057Z,19.14
2023-09-19T16:21:27.840Z,18.93
2023-09-19T16:23:55.277Z,18.53
2023-09-19T16:26:22.887Z,18.62
2023-09-19T16:28:51.930Z,17.91
2023-09-19T16:31:18.649Z,18.49
2023-09-19T16:33:46.635Z,18.02
2023-09-19T16:36:15.806Z,18.25
2023-09-19T16:38:43.384Z,18.40
2023-09-19T16:41:10.362Z,18.44
2023-09-19T16:43:37.634Z,18.46
2023-09-19T16:46:13.195Z,18.25
2023-09-19T16:48:51.542Z,18.39
2023-09-19T16:51:28.303Z,18.03
2023-09-19T16:53:55.661Z,17.98
2023-09-19T16:56:22.200Z,17.69
2023-09-19T16:58:51.859Z,17.66
2023-09-19T17:01:20.656Z,17.02
2023-09-19T17:03:47.810Z,17.19
2023-09-19T17:06:16.817Z,16.91
2023-09-19T17:08:45.600Z,16.89
2023-09-19T17:11:18.913Z,16.94
2023-09-19T17:13:48.067Z,16.80
2023-09-19T17:16:21.214Z,16.73
2023-09-19T17:18:55.681Z,16.75
2023-09-19T17:21:24.159Z,16.42
2023-09-19T17:23:50.910Z,16.53
2023-09-19T17:26:22.413Z,16.39
2023-09-19T17:28:49.852Z,16.31
2023-09-19T17:31:22.672Z,16.18
2023-09-19T17:33:51.501Z,16.07
2023-09-19T17:36:19.590Z,16.10
2023-09-19T17:38:48.399Z,16.01
2023-09-19T17:41:18.476Z,15.88
2023-09-19T17:43:48.005Z,16.02
2023-09-19T17:46:16.698Z,15.88
2023-09-19T17:48:50.797Z,15.72
2023-09-19T17:51:20.053Z,15.48
2023-09-19T17:53:47.994Z,15.44
2023-09-19T17:56:16.163Z,15.43
2023-09-19T17:58:44.626Z,15.35
2023-09-19T18:01:16.616Z,15.37
2023-09-19T18:03:43.627Z,15.32
2023-09-19T18:06:10.570Z,15.18
2023-09-19T18:08:37.979Z,15.07
2023-09-19T18:11:06.005Z,15.00
2023-09-19T18:13:32.766Z,14.97
2023-09-19T18:15:59.346Z,15.01
2023-09-19T18:18:27.661Z,14.97
2023-09-19T18:20:55.359Z,14.80
2023-09-19T18:23:22.123Z,14.70
2023-09-19T18:25:49.624Z,14.77
2023-09-19T18:28:16.430Z,14.66
2023-09-19T18:30:43.021Z,14.66
2023-09-19T18:33:09.643Z,14.55
2023-09-19T18:35:36.169Z,14.66
2023-09-19T18:38:02.936Z,14.58
2023-09-19T18:40:29.534Z,14.35
2023-09-19T18:42:56.749Z,14.52
2023-09-19T18:45:34.717Z,14.42
2023-09-19T18:48:07.155Z,14.42
2023-09-19T18:50:33.703Z,14.27
2023-09-19T18:53:01.251Z,14.29
2023-09-19T18:55:27.992Z,14.32
2023-09-19T18:57:54.854Z,14.11
2023-09-19T19:00:26.511Z,14.08
2023-09-19T19:02:54.398Z,14.20
2023-09-19T19:05:23.080Z,14.06
2023-09-19T19:07:49.843Z,13.64
2023-09-19T19:10:16.571Z,13.84
2023-09-19T19:12:43.144Z,13.84
2023-09-19T19:15:10.167Z,13.89
2023-09-19T19:17:37.126Z,13.72
2023-09-19T19:20:07.511Z,13.63
2023-09-19T19:22:34.780Z,13.53
2023-09-19T19:25:01.596Z,13.59
2023-09-19T19:27:28.232Z,13.48
2023-09-19T19:29:54.848Z,13.42
2023-09-19T19:32:26.019Z,13.23
2023-09-19T19:34:53.282Z,13.42
2023-09-19T19:37:20.144Z,13.39
2023-09-19T19:39:46.691Z,13.21
2023-09-19T19:42:14.175Z,13.41
2023-09-19T19:44:40.729Z,13.17
2023-09-19T19:47:07.463Z,13.19
2023-09-19T19:49:35.059Z,13.22
2023-09-19T19:52:01.585Z,13.21
2023-09-19T19:54:28.164Z,13.29
2023-09-19T19:56:54.949Z,13.28
2023-09-19T19:59:21.568Z,13.15
2023-09-19T20:01:48.363Z,12.93
2023-09-19T20:04:16.621Z,12.97
2023-09-19T20:06:43.889Z,12.79
2023-09-19T20:09:10.613Z,12.87
2023-09-19T20:11:39.429Z,12.91
2023-09-19T20:14:06.265Z,12.89
2023-09-19T20:16:37.075Z,13.13
2023-09-19T20:19:05.467Z,13.00
2023-09-19T20:21:32.809Z,12.95
2023-09-19T20:24:06.511Z,12.97
2023-09-19T20:26:38.479Z,12.92
2023-09-19T20:29:09.260Z,12.77
2023-09-19T20:31:38.151Z,12.50
2023-09-19T20:34:04.867Z,12.50
2023-09-19T20:36:31.899Z,12.49
2023-09-19T20:38:58.571Z,12.27
2023-09-19T20:41:25.145Z,12.46
2023-09-19T20:43:51.784Z,12.29
2023-09-19T20:46:18.375Z,12.42
2023-09-19T20:48:48.595Z,12.52
2023-09-19T20:51:16.014Z,12.23
2023-09-19T20:53:45.663Z,12.18
2023-09-19T20:56:13.228Z,12.10
2023-09-19T20:58:40.807Z,12.17
2023-09-19T21:01:09.898Z,12.23
2023-09-19T21:03:37.420Z,12.11
2023-09-19T21:06:08.877Z,12.19
2023-09-19T21:08:35.907Z,11.89
2023-09-19T21:11:12.619Z,12.01
2023-09-19T21:13:40.666Z,11.67
2023-09-19T21:16:08.708Z,11.69
2023-09-19T21:18:36.394Z,11.47
2023-09-19T21:21:04.424Z,11.71
2023-09-19T21:23:32.194Z,11.71
2023-09-19T21:25:58.885Z,11.82
2023-09-19T21:28:26.623Z,11.48
2023-09-19T21:31:05.162Z,11.45
2023-09-19T21:33:33.246Z,11.39
2023-09-19T21:36:00.173Z,11.55
2023-09-19T21:38:26.774Z,11.34
2023-09-19T21:40:53.507Z,11.36
2023-09-19T21:43:20.460Z,11.38
2023-09-19T21:45:47.036Z,11.28
2023-09-19T21:48:13.599Z,11.68
2023-09-19T21:50:40.209Z,11.63
2023-09-19T21:53:07.124Z,11.64
2023-09-19T21:55:33.791Z,11.81
2023-09-19T21:58:00.367Z,11.72
2023-09-19T22:00:36.322Z,11.53
2023-09-19T22:03:03.849Z,11.66
2023-09-19T22:05:37.074Z,11.64
2023-09-19T22:08:05.169Z,11.83
2023-09-19T22:10:32.060Z,11.98
2023-09-19T22:13:00.663Z,11.92
2023-09-19T22:15:27.185Z,11.58
2023-09-19T22:17:53.811Z,11.63
2023-09-19T22:20:30.062Z,11.66
2023-09-19T22:22:57.688Z,11.77
2023-09-19T22:25:26.000Z,11.48
2023-09-19T22:27:53.081Z,11.80
2023-09-19T22:30:20.159Z,11.65
2023-09-19T22:32:47.066Z,11.70
2023-09-19T22:35:13.955Z,11.40
2023-09-19T22:37:40.633Z,11.34
2023-09-19T22:40:17.532Z,11.54
2023-09-19T22:42:49.119Z,11.41
2023-09-19T22:45:15.939Z,11.50
2023-09-19T22:47:45.008Z,11.40
2023-09-19T22:50:11.671Z,11.33
2023-09-19T22:52:38.316Z,11.35
2023-09-19T22:55:09.378Z,11.31
2023-09-19T22:57:37.405Z,11.60
2023-09-19T23:00:04.734Z,11.35
2023-09-19T23:02:31.480Z,11.53
2023-09-19T23:05:02.594Z,11.42
2023-09-19T23:07:29.773Z,11.20
2023-09-19T23:09:56.576Z,11.21
2023-09-19T23:12:24.687Z,11.30
2023-09-19T23:14:51.262Z,11.20
2023-09-19T23:17:23.656Z,11.02
2023-09-19T23:19:52.548Z,11.44
2023-09-19T23:22:19.366Z,11.27
2023-09-19T23:24:50.765Z,11.34
2023-09-19T23:27:25.404Z,11.32
2023-09-19T23:29:52.709Z,11.16
2023-09-19T23:32:20.329Z,11.28
2023-09-19T23:34:48.262Z,11.01
2023-09-19T23:37:15.317Z,11.42
2023-09-19T23:39:42.358Z,11.12
2023-09-19T23:42:11.984Z,11.23
2023-09-19T23:44:42.439Z,11.32
2023-09-19T23:47:09.643Z,11.34
2023-09-19T23:49:36.279Z,11.48
2023-09-19T23:52:03.335Z,11.41
2023-09-19T23:54:32.928Z,11.14
2023-09-19T23:56:59.512Z,11.08
2023-09-19T23:59:28.284Z,11.30
